sensor_id;sensor_type;location;lat;lon;timestamp;temperature;humidity
11540;DHT22;5826;54.756;9.192;2023-10-19T00:02:05;10.30;73.30
11540;DHT22;5826;54.756;9.192;2023-10-19T00:04:30;10.30;73.30
11540;DHT22;5826;54.756;9.192;2023-10-19T00:06:58;10.20;73.10
11540;DHT22;5826;54.756;9.192;2023-10-19T00:09:23;10.20;73.10
11540;DHT22;5826;54.756;9.192;2023-10-19T00:11:49;10.30;73.20
11540;DHT22;5826;54.756;9.192;2023-10-19T00:14:19;10.30;73.10
11540;DHT22;5826;54.756;9.192;2023-10-19T00:16:46;10.30;73.10
11540;DHT22;5826;54.756;9.192;2023-10-19T00:19:22;10.30;73.90
11540;DHT22;5826;54.756;9.192;2023-10-19T00:21:48;10.30;73.10
11540;DHT22;5826;54.756;9.192;2023-10-19T00:24:18;10.30;73.00
11540;DHT22;5826;54.756;9.192;2023-10-19T00:26:45;10.30;73.00
11540;DHT22;5826;54.756;9.192;2023-10-19T00:29:10;10.30;73.00
11540;DHT22;5826;54.756;9.192;2023-10-19T00:31:58;10.30;73.00
11540;DHT22;5826;54.756;9.192;2023-10-19T00:34:25;10.30;73.00
11540;DHT22;5826;54.756;9.192;2023-10-19T00:36:51;10.20;73.00
11540;DHT22;5826;54.756;9.192;2023-10-19T00:39:17;10.30;73.10
11540;DHT22;5826;54.756;9.192;2023-10-19T00:41:49;10.30;73.00
11540;DHT22;5826;54.756;9.192;2023-10-19T00:44:16;10.30;73.00
11540;DHT22;5826;54.756;9.192;2023-10-19T00:47:02;10.20;73.00
11540;DHT22;5826;54.756;9.192;2023-10-19T00:49:29;10.30;73.00
11540;DHT22;5826;54.756;9.192;2023-10-19T00:51:57;10.20;72.90
11540;DHT22;5826;54.756;9.192;2023-10-19T00:54:38;10.20;72.90
11540;DHT22;5826;54.756;9.192;2023-10-19T00:57:25;10.30;72.90
11540;DHT22;5826;54.756;9.192;2023-10-19T01:00:01;10.30;72.80
11540;DHT22;5826;54.756;9.192;2023-10-19T01:02:48;10.30;72.80
11540;DHT22;5826;54.756;9.192;2023-10-19T01:05:16;10.30;72.70
11540;DHT22;5826;54.756;9.192;2023-10-19T01:07:47;10.30;72.80
11540;DHT22;5826;54.756;9.192;2023-10-19T01:10:18;10.30;72.80
11540;DHT22;5826;54.756;9.192;2023-10-19T01:12:47;10.30;72.90
11540;DHT22;5826;54.756;9.192;2023-10-19T01:15:18;10.30;72.70
11540;DHT22;5826;54.756;9.192;2023-10-19T01:17:53;10.30;72.80
11540;DHT22;5826;54.756;9.192;2023-10-19T01:20:29;10.30;72.70
11540;DHT22;5826;54.756;9.192;2023-10-19T01:23:05;10.30;72.80
11540;DHT22;5826;54.756;9.192;2023-10-19T01:25:47;10.30;72.80
11540;DHT22;5826;54.756;9.192;2023-10-19T01:28:13;10.30;72.80
11540;DHT22;5826;54.756;9.192;2023-10-19T01:30:42;10.30;72.70
11540;DHT22;5826;54.756;9.192;2023-10-19T01:33:09;10.40;72.90
11540;DHT22;5826;54.756;9.192;2023-10-19T01:35:41;10.30;72.60
11540;DHT22;5826;54.756;9.192;2023-10-19T01:38:27;10.30;72.60
11540;DHT22;5826;54.756;9.192;2023-10-19T01:40:56;10.30;72.50
11540;DHT22;5826;54.756;9.192;2023-10-19T01:43:25;10.30;72.60
11540;DHT22;5826;54.756;9.192;2023-10-19T01:45:54;10.30;72.50
11540;DHT22;5826;54.756;9.192;2023-10-19T01:48:20;10.40;72.80
11540;DHT22;5826;54.756;9.192;2023-10-19T01:50:49;10.40;72.60
11540;DHT22;5826;54.756;9.192;2023-10-19T01:53:16;10.40;72.60
11540;DHT22;5826;54.756;9.192;2023-10-19T01:55:44;10.30;72.60
11540;DHT22;5826;54.756;9.192;2023-10-19T01:58:10;10.40;72.60
11540;DHT22;5826;54.756;9.192;2023-10-19T02:00:36;10.30;72.40
11540;DHT22;5826;54.756;9.192;2023-10-19T02:03:08;10.30;72.40
11540;DHT22;5826;54.756;9.192;2023-10-19T02:05:34;10.30;72.40
11540;DHT22;5826;54.756;9.192;2023-10-19T02:08:06;10.40;72.50
11540;DHT22;5826;54.756;9.192;2023-10-19T02:10:36;10.30;72.40
11540;DHT22;5826;54.756;9.192;2023-10-19T02:13:03;10.30;72.50
11540;DHT22;5826;54.756;9.192;2023-10-19T02:15:33;10.40;72.60
11540;DHT22;5826;54.756;9.192;2023-10-19T02:18:01;10.40;72.60
11540;DHT22;5826;54.756;9.192;2023-10-19T02:20:28;10.40;72.50
11540;DHT22;5826;54.756;9.192;2023-10-19T02:22:54;10.30;72.40
11540;DHT22;5826;54.756;9.192;2023-10-19T02:25:23;10.40;72.50
11540;DHT22;5826;54.756;9.192;2023-10-19T02:27:50;10.40;72.60
11540;DHT22;5826;54.756;9.192;2023-10-19T02:30:17;10.40;72.50
11540;DHT22;5826;54.756;9.192;2023-10-19T02:32:43;10.40;72.40
11540;DHT22;5826;54.756;9.192;2023-10-19T02:35:09;10.30;72.40
11540;DHT22;5826;54.756;9.192;2023-10-19T02:37:35;10.30;72.50
11540;DHT22;5826;54.756;9.192;2023-10-19T02:40:00;10.40;72.70
11540;DHT22;5826;54.756;9.192;2023-10-19T02:42:26;10.40;72.60
11540;DHT22;5826;54.756;9.192;2023-10-19T02:44:51;10.30;72.50
11540;DHT22;5826;54.756;9.192;2023-10-19T02:47:17;10.40;72.60
11540;DHT22;5826;54.756;9.192;2023-10-19T02:49:43;10.40;72.60
11540;DHT22;5826;54.756;9.192;2023-10-19T02:52:15;10.40;72.70
11540;DHT22;5826;54.756;9.192;2023-10-19T02:54:41;10.40;72.80
11540;DHT22;5826;54.756;9.192;2023-10-19T02:57:07;10.40;72.70
11540;DHT22;5826;54.756;9.192;2023-10-19T02:59:35;10.40;72.70
11540;DHT22;5826;54.756;9.192;2023-10-19T03:02:01;10.40;72.70
11540;DHT22;5826;54.756;9.192;2023-10-19T03:04:32;10.40;72.60
11540;DHT22;5826;54.756;9.192;2023-10-19T03:07:01;10.40;72.80
11540;DHT22;5826;54.756;9.192;2023-10-19T03:09:28;10.40;72.80
11540;DHT22;5826;54.756;9.192;2023-10-19T03:11:54;10.40;72.60
11540;DHT22;5826;54.756;9.192;2023-10-19T03:14:26;10.40;72.60
11540;DHT22;5826;54.756;9.192;2023-10-19T03:16:53;10.50;72.80
11540;DHT22;5826;54.756;9.192;2023-10-19T03:19:22;10.40;72.80
11540;DHT22;5826;54.756;9.192;2023-10-19T03:21:47;10.50;73.00
11540;DHT22;5826;54.756;9.192;2023-10-19T03:24:16;10.50;73.00
11540;DHT22;5826;54.756;9.192;2023-10-19T03:26:51;10.40;73.10
11540;DHT22;5826;54.756;9.192;2023-10-19T03:29:17;10.40;73.00
11540;DHT22;5826;54.756;9.192;2023-10-19T03:31:56;10.90;73.40
11540;DHT22;5826;54.756;9.192;2023-10-19T03:34:21;10.50;73.40
11540;DHT22;5826;54.756;9.192;2023-10-19T03:36:49;10.50;73.20
11540;DHT22;5826;54.756;9.192;2023-10-19T03:39:16;10.50;73.30
11540;DHT22;5826;54.756;9.192;2023-10-19T03:41:43;10.50;73.40
11540;DHT22;5826;54.756;9.192;2023-10-19T03:44:10;10.50;73.30
11540;DHT22;5826;54.756;9.192;2023-10-19T03:46:45;10.50;73.10
11540;DHT22;5826;54.756;9.192;2023-10-19T03:49:29;10.50;73.10
11540;DHT22;5826;54.756;9.192;2023-10-19T03:52:03;10.50;73.00
11540;DHT22;5826;54.756;9.192;2023-10-19T03:54:46;10.50;73.00
11540;DHT22;5826;54.756;9.192;2023-10-19T03:57:14;10.50;72.90
11540;DHT22;5826;54.756;9.192;2023-10-19T03:59:55;10.50;72.90
11540;DHT22;5826;54.756;9.192;2023-10-19T04:02:27;10.50;72.80
11540;DHT22;5826;54.756;9.192;2023-10-19T04:05:01;10.50;72.80
11540;DHT22;5826;54.756;9.192;2023-10-19T04:07:28;10.50;72.80
11540;DHT22;5826;54.756;9.192;2023-10-19T04:09:57;10.50;72.60
11540;DHT22;5826;54.756;9.192;2023-10-19T04:12:32;10.50;72.70
11540;DHT22;5826;54.756;9.192;2023-10-19T04:15:01;10.50;72.70
11540;DHT22;5826;54.756;9.192;2023-10-19T04:17:35;10.50;72.60
11540;DHT22;5826;54.756;9.192;2023-10-19T04:20:02;10.60;72.80
11540;DHT22;5826;54.756;9.192;2023-10-19T04:22:38;10.60;72.70
11540;DHT22;5826;54.756;9.192;2023-10-19T04:25:05;10.60;72.60
11540;DHT22;5826;54.756;9.192;2023-10-19T04:27:31;10.60;72.80
11540;DHT22;5826;54.756;9.192;2023-10-19T04:30:01;10.60;72.90
11540;DHT22;5826;54.756;9.192;2023-10-19T04:32:27;10.60;72.90
11540;DHT22;5826;54.756;9.192;2023-10-19T04:34:53;10.60;72.90
11540;DHT22;5826;54.756;9.192;2023-10-19T04:37:18;10.60;72.90
11540;DHT22;5826;54.756;9.192;2023-10-19T04:39:45;10.60;72.90
11540;DHT22;5826;54.756;9.192;2023-10-19T04:42:10;10.60;73.00
11540;DHT22;5826;54.756;9.192;2023-10-19T04:44:36;10.60;72.90
11540;DHT22;5826;54.756;9.192;2023-10-19T04:47:01;10.60;72.80
11540;DHT22;5826;54.756;9.192;2023-10-19T04:49:27;10.60;73.00
11540;DHT22;5826;54.756;9.192;2023-10-19T04:51:54;10.60;72.90
11540;DHT22;5826;54.756;9.192;2023-10-19T04:54:19;10.60;72.90
11540;DHT22;5826;54.756;9.192;2023-10-19T04:56:45;10.60;72.80
11540;DHT22;5826;54.756;9.192;2023-10-19T04:59:10;10.60;72.80
11540;DHT22;5826;54.756;9.192;2023-10-19T05:01:36;10.60;72.90
11540;DHT22;5826;54.756;9.192;2023-10-19T05:04:02;10.60;72.80
11540;DHT22;5826;54.756;9.192;2023-10-19T05:06:28;10.60;72.70
11540;DHT22;5826;54.756;9.192;2023-10-19T05:08:53;10.60;72.60
11540;DHT22;5826;54.756;9.192;2023-10-19T05:11:19;10.60;72.50
11540;DHT22;5826;54.756;9.192;2023-10-19T05:13:44;10.60;72.50
11540;DHT22;5826;54.756;9.192;2023-10-19T05:16:10;10.60;72.40
11540;DHT22;5826;54.756;9.192;2023-10-19T05:18:35;10.60;72.30
11540;DHT22;5826;54.756;9.192;2023-10-19T05:21:01;10.60;72.30
11540;DHT22;5826;54.756;9.192;2023-10-19T05:23:27;10.60;72.20
11540;DHT22;5826;54.756;9.192;2023-10-19T05:25:58;10.60;72.10
11540;DHT22;5826;54.756;9.192;2023-10-19T05:28:25;10.60;72.20
11540;DHT22;5826;54.756;9.192;2023-10-19T05:30:51;10.60;72.20
11540;DHT22;5826;54.756;9.192;2023-10-19T05:33:16;10.60;72.10
11540;DHT22;5826;54.756;9.192;2023-10-19T05:35:46;10.60;72.10
11540;DHT22;5826;54.756;9.192;2023-10-19T05:38:11;10.60;72.10
11540;DHT22;5826;54.756;9.192;2023-10-19T05:40:37;10.60;72.10
11540;DHT22;5826;54.756;9.192;2023-10-19T05:43:05;10.60;72.10
11540;DHT22;5826;54.756;9.192;2023-10-19T05:45:30;10.60;72.10
11540;DHT22;5826;54.756;9.192;2023-10-19T05:47:57;10.60;72.10
11540;DHT22;5826;54.756;9.192;2023-10-19T05:50:23;10.60;72.20
11540;DHT22;5826;54.756;9.192;2023-10-19T05:52:49;10.60;72.40
11540;DHT22;5826;54.756;9.192;2023-10-19T05:55:15;10.60;72.40
11540;DHT22;5826;54.756;9.192;2023-10-19T05:57:41;10.60;72.50
11540;DHT22;5826;54.756;9.192;2023-10-19T06:00:09;10.60;72.50
11540;DHT22;5826;54.756;9.192;2023-10-19T06:02:39;10.60;72.70
11540;DHT22;5826;54.756;9.192;2023-10-19T06:05:04;10.60;72.70
11540;DHT22;5826;54.756;9.192;2023-10-19T06:07:31;10.60;72.60
11540;DHT22;5826;54.756;9.192;2023-10-19T06:09:56;10.60;72.60
11540;DHT22;5826;54.756;9.192;2023-10-19T06:12:22;10.60;72.50
11540;DHT22;5826;54.756;9.192;2023-10-19T06:14:47;10.60;72.70
11540;DHT22;5826;54.756;9.192;2023-10-19T06:17:13;10.60;72.60
11540;DHT22;5826;54.756;9.192;2023-10-19T06:19:44;10.60;72.70
11540;DHT22;5826;54.756;9.192;2023-10-19T06:22:11;10.60;72.90
11540;DHT22;5826;54.756;9.192;2023-10-19T06:24:37;10.60;72.80
11540;DHT22;5826;54.756;9.192;2023-10-19T06:27:03;10.60;72.80
11540;DHT22;5826;54.756;9.192;2023-10-19T06:29:29;10.60;72.70
11540;DHT22;5826;54.756;9.192;2023-10-19T06:31:55;10.60;72.60
11540;DHT22;5826;54.756;9.192;2023-10-19T06:34:20;10.60;72.50
11540;DHT22;5826;54.756;9.192;2023-10-19T06:36:46;10.60;72.50
11540;DHT22;5826;54.756;9.192;2023-10-19T06:39:11;10.60;72.60
11540;DHT22;5826;54.756;9.192;2023-10-19T06:41:39;10.60;72.60
11540;DHT22;5826;54.756;9.192;2023-10-19T06:44:04;10.60;72.70
11540;DHT22;5826;54.756;9.192;2023-10-19T06:46:31;10.60;72.80
11540;DHT22;5826;54.756;9.192;2023-10-19T06:48:57;10.60;72.80
11540;DHT22;5826;54.756;9.192;2023-10-19T06:51:26;10.70;72.80
11540;DHT22;5826;54.756;9.192;2023-10-19T06:53:54;10.70;73.60
11540;DHT22;5826;54.756;9.192;2023-10-19T06:56:21;10.70;73.50
11540;DHT22;5826;54.756;9.192;2023-10-19T06:58:46;10.70;72.60
11540;DHT22;5826;54.756;9.192;2023-10-19T07:01:13;10.70;72.60
11540;DHT22;5826;54.756;9.192;2023-10-19T07:03:42;10.70;72.70
11540;DHT22;5826;54.756;9.192;2023-10-19T07:06:07;10.70;72.60
11540;DHT22;5826;54.756;9.192;2023-10-19T07:08:39;10.70;72.70
11540;DHT22;5826;54.756;9.192;2023-10-19T07:11:04;10.70;72.80
11540;DHT22;5826;54.756;9.192;2023-10-19T07:13:30;10.80;72.70
11540;DHT22;5826;54.756;9.192;2023-10-19T07:15:58;10.80;72.80
11540;DHT22;5826;54.756;9.192;2023-10-19T07:18:24;10.80;72.60
11540;DHT22;5826;54.756;9.192;2023-10-19T07:20:49;10.80;72.60
11540;DHT22;5826;54.756;9.192;2023-10-19T07:23:15;10.80;72.50
11540;DHT22;5826;54.756;9.192;2023-10-19T07:25:45;10.80;72.60
11540;DHT22;5826;54.756;9.192;2023-10-19T07:28:20;10.80;72.50
11540;DHT22;5826;54.756;9.192;2023-10-19T07:30:47;10.80;72.40
11540;DHT22;5826;54.756;9.192;2023-10-19T07:33:14;10.80;72.50
11540;DHT22;5826;54.756;9.192;2023-10-19T07:35:43;10.90;72.50
11540;DHT22;5826;54.756;9.192;2023-10-19T07:38:12;10.90;72.60
11540;DHT22;5826;54.756;9.192;2023-10-19T07:40:38;10.90;72.50
11540;DHT22;5826;54.756;9.192;2023-10-19T07:43:04;10.90;72.50
11540;DHT22;5826;54.756;9.192;2023-10-19T07:45:31;10.90;72.40
11540;DHT22;5826;54.756;9.192;2023-10-19T07:48:00;11.00;72.40
11540;DHT22;5826;54.756;9.192;2023-10-19T07:50:38;11.00;72.40
11540;DHT22;5826;54.756;9.192;2023-10-19T07:53:06;11.10;72.00
11540;DHT22;5826;54.756;9.192;2023-10-19T07:55:31;11.10;71.90
11540;DHT22;5826;54.756;9.192;2023-10-19T07:57:57;11.10;71.60
11540;DHT22;5826;54.756;9.192;2023-10-19T08:00:25;11.20;71.40
11540;DHT22;5826;54.756;9.192;2023-10-19T08:02:52;11.20;71.30
11540;DHT22;5826;54.756;9.192;2023-10-19T08:05:19;11.20;71.40
11540;DHT22;5826;54.756;9.192;2023-10-19T08:07:45;11.20;71.30
11540;DHT22;5826;54.756;9.192;2023-10-19T08:10:13;11.20;71.40
11540;DHT22;5826;54.756;9.192;2023-10-19T08:12:42;11.20;71.30
11540;DHT22;5826;54.756;9.192;2023-10-19T08:15:09;11.20;71.40
11540;DHT22;5826;54.756;9.192;2023-10-19T08:17:37;11.20;71.30
11540;DHT22;5826;54.756;9.192;2023-10-19T08:20:04;11.30;71.40
11540;DHT22;5826;54.756;9.192;2023-10-19T08:22:34;11.30;71.30
11540;DHT22;5826;54.756;9.192;2023-10-19T08:24:59;11.30;71.30
11540;DHT22;5826;54.756;9.192;2023-10-19T08:27:25;11.30;71.10
11540;DHT22;5826;54.756;9.192;2023-10-19T08:29:51;11.30;71.20
11540;DHT22;5826;54.756;9.192;2023-10-19T08:32:16;11.30;71.30
11540;DHT22;5826;54.756;9.192;2023-10-19T08:34:42;11.40;71.30
11540;DHT22;5826;54.756;9.192;2023-10-19T08:37:07;11.40;71.30
11540;DHT22;5826;54.756;9.192;2023-10-19T08:39:33;11.50;71.10
11540;DHT22;5826;54.756;9.192;2023-10-19T08:42:05;11.50;70.80
11540;DHT22;5826;54.756;9.192;2023-10-19T08:44:31;11.50;70.80
11540;DHT22;5826;54.756;9.192;2023-10-19T08:46:57;11.50;70.90
11540;DHT22;5826;54.756;9.192;2023-10-19T08:49:25;11.50;71.70
11540;DHT22;5826;54.756;9.192;2023-10-19T08:51:53;11.50;70.50
11540;DHT22;5826;54.756;9.192;2023-10-19T08:54:19;11.50;70.80
11540;DHT22;5826;54.756;9.192;2023-10-19T08:56:45;11.50;70.90
11540;DHT22;5826;54.756;9.192;2023-10-19T08:59:13;11.50;70.90
11540;DHT22;5826;54.756;9.192;2023-10-19T09:01:41;11.50;71.10
11540;DHT22;5826;54.756;9.192;2023-10-19T09:04:12;11.50;70.90
11540;DHT22;5826;54.756;9.192;2023-10-19T09:06:44;11.50;70.80
11540;DHT22;5826;54.756;9.192;2023-10-19T09:09:14;11.50;71.30
11540;DHT22;5826;54.756;9.192;2023-10-19T09:11:45;11.50;70.90
11540;DHT22;5826;54.756;9.192;2023-10-19T09:14:12;11.50;71.00
11540;DHT22;5826;54.756;9.192;2023-10-19T09:16:41;11.50;71.00
11540;DHT22;5826;54.756;9.192;2023-10-19T09:19:19;11.40;70.80
11540;DHT22;5826;54.756;9.192;2023-10-19T09:21:45;11.40;70.90
11540;DHT22;5826;54.756;9.192;2023-10-19T09:24:11;11.40;71.20
11540;DHT22;5826;54.756;9.192;2023-10-19T09:26:37;11.40;71.20
11540;DHT22;5826;54.756;9.192;2023-10-19T09:29:02;11.40;72.10
11540;DHT22;5826;54.756;9.192;2023-10-19T09:31:29;11.40;71.10
11540;DHT22;5826;54.756;9.192;2023-10-19T09:33:56;11.40;71.20
11540;DHT22;5826;54.756;9.192;2023-10-19T09:36:24;11.40;71.20
11540;DHT22;5826;54.756;9.192;2023-10-19T09:38:52;11.40;71.20
11540;DHT22;5826;54.756;9.192;2023-10-19T09:41:21;11.40;71.50
11540;DHT22;5826;54.756;9.192;2023-10-19T09:43:48;11.40;71.60
11540;DHT22;5826;54.756;9.192;2023-10-19T09:46:23;11.40;71.60
11540;DHT22;5826;54.756;9.192;2023-10-19T09:48:50;11.40;71.60
11540;DHT22;5826;54.756;9.192;2023-10-19T09:51:17;11.50;72.40
11540;DHT22;5826;54.756;9.192;2023-10-19T09:53:48;11.50;71.70
11540;DHT22;5826;54.756;9.192;2023-10-19T09:56:21;11.40;71.90
11540;DHT22;5826;54.756;9.192;2023-10-19T09:58:49;11.40;71.80
11540;DHT22;5826;54.756;9.192;2023-10-19T10:01:16;11.40;72.20
11540;DHT22;5826;54.756;9.192;2023-10-19T10:03:46;11.40;72.00
11540;DHT22;5826;54.756;9.192;2023-10-19T10:06:17;11.40;73.10
11540;DHT22;5826;54.756;9.192;2023-10-19T10:08:46;11.40;72.60
11540;DHT22;5826;54.756;9.192;2023-10-19T10:13:43;11.40;72.90
11540;DHT22;5826;54.756;9.192;2023-10-19T10:16:13;11.40;73.00
11540;DHT22;5826;54.756;9.192;2023-10-19T10:18:42;11.40;73.00
11540;DHT22;5826;54.756;9.192;2023-10-19T10:21:14;11.40;73.00
11540;DHT22;5826;54.756;9.192;2023-10-19T10:26:14;11.40;73.30
11540;DHT22;5826;54.756;9.192;2023-10-19T10:28:41;11.40;73.60
11540;DHT22;5826;54.756;9.192;2023-10-19T10:31:22;11.30;73.30
11540;DHT22;5826;54.756;9.192;2023-10-19T10:33:49;11.30;73.50
11540;DHT22;5826;54.756;9.192;2023-10-19T10:36:16;11.30;73.60
11540;DHT22;5826;54.756;9.192;2023-10-19T10:38:42;11.30;74.60
11540;DHT22;5826;54.756;9.192;2023-10-19T10:41:08;11.20;73.80
11540;DHT22;5826;54.756;9.192;2023-10-19T10:43:57;11.20;73.90
11540;DHT22;5826;54.756;9.192;2023-10-19T10:46:24;11.20;74.00
11540;DHT22;5826;54.756;9.192;2023-10-19T10:48:51;11.20;73.90
11540;DHT22;5826;54.756;9.192;2023-10-19T10:51:26;11.10;73.80
11540;DHT22;5826;54.756;9.192;2023-10-19T10:53:54;11.10;73.80
11540;DHT22;5826;54.756;9.192;2023-10-19T10:56:22;11.10;74.00
11540;DHT22;5826;54.756;9.192;2023-10-19T10:58:48;11.10;73.80
11540;DHT22;5826;54.756;9.192;2023-10-19T11:01:14;11.10;73.80
11540;DHT22;5826;54.756;9.192;2023-10-19T11:03:40;11.10;74.20
11540;DHT22;5826;54.756;9.192;2023-10-19T11:06:08;11.10;74.20
11540;DHT22;5826;54.756;9.192;2023-10-19T11:08:34;11.20;73.90
11540;DHT22;5826;54.756;9.192;2023-10-19T11:11:10;11.20;74.30
11540;DHT22;5826;54.756;9.192;2023-10-19T11:13:39;11.10;74.00
11540;DHT22;5826;54.756;9.192;2023-10-19T11:16:06;11.20;73.60
11540;DHT22;5826;54.756;9.192;2023-10-19T11:21:02;11.30;74.00
11540;DHT22;5826;54.756;9.192;2023-10-19T11:23:37;11.20;73.80
11540;DHT22;5826;54.756;9.192;2023-10-19T11:26:03;11.30;73.70
11540;DHT22;5826;54.756;9.192;2023-10-19T11:28:31;11.30;73.90
11540;DHT22;5826;54.756;9.192;2023-10-19T11:31:18;11.30;73.40
11540;DHT22;5826;54.756;9.192;2023-10-19T11:33:45;11.40;73.50
11540;DHT22;5826;54.756;9.192;2023-10-19T11:36:12;11.40;73.50
11540;DHT22;5826;54.756;9.192;2023-10-19T11:38:40;11.40;73.30
11540;DHT22;5826;54.756;9.192;2023-10-19T11:41:05;11.40;73.50
11540;DHT22;5826;54.756;9.192;2023-10-19T11:43:31;11.40;73.60
11540;DHT22;5826;54.756;9.192;2023-10-19T11:45:56;11.40;73.40
11540;DHT22;5826;54.756;9.192;2023-10-19T11:48:22;11.40;73.60
11540;DHT22;5826;54.756;9.192;2023-10-19T11:50:47;11.40;73.10
11540;DHT22;5826;54.756;9.192;2023-10-19T11:53:13;11.40;73.60
11540;DHT22;5826;54.756;9.192;2023-10-19T11:55:38;11.40;73.40
11540;DHT22;5826;54.756;9.192;2023-10-19T11:58:07;11.40;73.70
11540;DHT22;5826;54.756;9.192;2023-10-19T12:00:36;11.40;73.70
11540;DHT22;5826;54.756;9.192;2023-10-19T12:03:03;11.40;73.60
11540;DHT22;5826;54.756;9.192;2023-10-19T12:05:29;11.40;73.60
11540;DHT22;5826;54.756;9.192;2023-10-19T12:07:55;11.50;73.10
11540;DHT22;5826;54.756;9.192;2023-10-19T12:10:22;11.60;72.80
11540;DHT22;5826;54.756;9.192;2023-10-19T12:12:54;11.60;73.00
11540;DHT22;5826;54.756;9.192;2023-10-19T12:15:22;11.60;73.00
11540;DHT22;5826;54.756;9.192;2023-10-19T12:17:48;11.60;73.10
11540;DHT22;5826;54.756;9.192;2023-10-19T12:20:16;11.60;73.90
11540;DHT22;5826;54.756;9.192;2023-10-19T12:22:41;11.60;72.50
11540;DHT22;5826;54.756;9.192;2023-10-19T12:25:07;11.60;73.30
11540;DHT22;5826;54.756;9.192;2023-10-19T12:27:33;11.50;73.70
11540;DHT22;5826;54.756;9.192;2023-10-19T12:29:59;11.50;74.00
11540;DHT22;5826;54.756;9.192;2023-10-19T12:32:25;11.50;74.20
11540;DHT22;5826;54.756;9.192;2023-10-19T12:34:51;11.40;74.20
11540;DHT22;5826;54.756;9.192;2023-10-19T12:37:19;11.40;74.00
11540;DHT22;5826;54.756;9.192;2023-10-19T12:39:45;11.40;74.00
11540;DHT22;5826;54.756;9.192;2023-10-19T12:42:13;11.30;74.20
11540;DHT22;5826;54.756;9.192;2023-10-19T12:44:39;11.30;74.90
11540;DHT22;5826;54.756;9.192;2023-10-19T12:47:05;11.30;74.50
11540;DHT22;5826;54.756;9.192;2023-10-19T12:49:41;11.30;74.40
11540;DHT22;5826;54.756;9.192;2023-10-19T12:52:07;11.30;74.40
11540;DHT22;5826;54.756;9.192;2023-10-19T12:54:34;11.30;74.50
11540;DHT22;5826;54.756;9.192;2023-10-19T12:57:03;11.20;74.70
11540;DHT22;5826;54.756;9.192;2023-10-19T12:59:30;11.30;74.40
11540;DHT22;5826;54.756;9.192;2023-10-19T13:01:55;11.30;74.60
11540;DHT22;5826;54.756;9.192;2023-10-19T13:04:24;11.30;74.60
11540;DHT22;5826;54.756;9.192;2023-10-19T13:06:51;11.30;74.50
11540;DHT22;5826;54.756;9.192;2023-10-19T13:09:17;11.30;74.30
11540;DHT22;5826;54.756;9.192;2023-10-19T13:11:47;11.40;74.50
11540;DHT22;5826;54.756;9.192;2023-10-19T13:14:19;11.20;74.50
11540;DHT22;5826;54.756;9.192;2023-10-19T13:16:45;11.20;74.20
11540;DHT22;5826;54.756;9.192;2023-10-19T13:19:11;11.30;75.20
11540;DHT22;5826;54.756;9.192;2023-10-19T13:21:41;11.30;74.40
11540;DHT22;5826;54.756;9.192;2023-10-19T13:24:08;11.20;74.20
11540;DHT22;5826;54.756;9.192;2023-10-19T13:26:34;11.20;74.40
11540;DHT22;5826;54.756;9.192;2023-10-19T13:28:59;11.20;74.70
11540;DHT22;5826;54.756;9.192;2023-10-19T13:31:25;11.20;74.50
11540;DHT22;5826;54.756;9.192;2023-10-19T13:33:52;11.30;74.60
11540;DHT22;5826;54.756;9.192;2023-10-19T13:36:18;11.20;74.60
11540;DHT22;5826;54.756;9.192;2023-10-19T13:38:45;11.20;74.60
11540;DHT22;5826;54.756;9.192;2023-10-19T13:41:11;11.20;74.80
11540;DHT22;5826;54.756;9.192;2023-10-19T13:43:37;11.20;75.40
11540;DHT22;5826;54.756;9.192;2023-10-19T13:46:02;11.10;75.30
11540;DHT22;5826;54.756;9.192;2023-10-19T13:48:30;11.20;75.40
11540;DHT22;5826;54.756;9.192;2023-10-19T13:50:57;11.10;75.00
11540;DHT22;5826;54.756;9.192;2023-10-19T13:53:27;11.10;75.50
11540;DHT22;5826;54.756;9.192;2023-10-19T13:55:53;11.10;75.20
11540;DHT22;5826;54.756;9.192;2023-10-19T13:58:18;11.10;75.20
11540;DHT22;5826;54.756;9.192;2023-10-19T14:00:44;11.10;75.70
11540;DHT22;5826;54.756;9.192;2023-10-19T14:03:11;11.00;75.70
11540;DHT22;5826;54.756;9.192;2023-10-19T14:05:38;11.00;75.30
11540;DHT22;5826;54.756;9.192;2023-10-19T14:08:05;11.10;75.70
11540;DHT22;5826;54.756;9.192;2023-10-19T14:10:31;11.00;75.80
11540;DHT22;5826;54.756;9.192;2023-10-19T14:12:56;11.00;76.00
11540;DHT22;5826;54.756;9.192;2023-10-19T14:15:22;11.00;76.20
11540;DHT22;5826;54.756;9.192;2023-10-19T14:17:48;11.00;76.30
11540;DHT22;5826;54.756;9.192;2023-10-19T14:20:15;11.00;76.40
11540;DHT22;5826;54.756;9.192;2023-10-19T14:22:46;10.90;76.20
11540;DHT22;5826;54.756;9.192;2023-10-19T14:25:12;10.90;76.40
11540;DHT22;5826;54.756;9.192;2023-10-19T14:27:40;10.90;76.20
11540;DHT22;5826;54.756;9.192;2023-10-19T14:30:07;10.90;76.30
11540;DHT22;5826;54.756;9.192;2023-10-19T14:32:32;10.90;76.40
11540;DHT22;5826;54.756;9.192;2023-10-19T14:34:58;10.80;76.10
11540;DHT22;5826;54.756;9.192;2023-10-19T14:37:24;10.80;76.50
11540;DHT22;5826;54.756;9.192;2023-10-19T14:39:50;10.80;76.30
11540;DHT22;5826;54.756;9.192;2023-10-19T14:42:16;10.80;76.80
11540;DHT22;5826;54.756;9.192;2023-10-19T14:44:42;10.80;76.70
11540;DHT22;5826;54.756;9.192;2023-10-19T14:47:07;10.80;76.80
11540;DHT22;5826;54.756;9.192;2023-10-19T14:49:33;10.70;77.10
11540;DHT22;5826;54.756;9.192;2023-10-19T14:51:58;10.70;77.00
11540;DHT22;5826;54.756;9.192;2023-10-19T14:54:24;10.70;76.70
11540;DHT22;5826;54.756;9.192;2023-10-19T14:56:49;10.70;76.90
11540;DHT22;5826;54.756;9.192;2023-10-19T14:59:15;10.70;76.50
11540;DHT22;5826;54.756;9.192;2023-10-19T15:01:40;10.80;77.00
11540;DHT22;5826;54.756;9.192;2023-10-19T15:04:06;10.70;76.80
11540;DHT22;5826;54.756;9.192;2023-10-19T15:06:32;10.70;76.90
11540;DHT22;5826;54.756;9.192;2023-10-19T15:08:57;10.70;76.70
11540;DHT22;5826;54.756;9.192;2023-10-19T15:11:23;10.70;76.60
11540;DHT22;5826;54.756;9.192;2023-10-19T15:13:50;10.70;77.30
11540;DHT22;5826;54.756;9.192;2023-10-19T15:16:16;10.70;77.30
11540;DHT22;5826;54.756;9.192;2023-10-19T15:18:42;10.60;77.30
11540;DHT22;5826;54.756;9.192;2023-10-19T15:21:09;10.80;77.20
11540;DHT22;5826;54.756;9.192;2023-10-19T15:23:34;10.70;77.20
11540;DHT22;5826;54.756;9.192;2023-10-19T15:26:00;10.70;77.20
11540;DHT22;5826;54.756;9.192;2023-10-19T15:28:27;10.70;77.00
11540;DHT22;5826;54.756;9.192;2023-10-19T15:30:57;10.70;77.10
11540;DHT22;5826;54.756;9.192;2023-10-19T15:33:23;10.70;77.70
11540;DHT22;5826;54.756;9.192;2023-10-19T15:35:48;10.70;77.60
11540;DHT22;5826;54.756;9.192;2023-10-19T15:38:14;10.70;77.00
11540;DHT22;5826;54.756;9.192;2023-10-19T15:40:39;10.70;77.30
11540;DHT22;5826;54.756;9.192;2023-10-19T15:43:08;10.70;77.30
11540;DHT22;5826;54.756;9.192;2023-10-19T15:45:33;10.70;77.30
11540;DHT22;5826;54.756;9.192;2023-10-19T15:48:03;10.70;77.50
11540;DHT22;5826;54.756;9.192;2023-10-19T15:50:29;10.70;77.30
11540;DHT22;5826;54.756;9.192;2023-10-19T15:52:55;10.70;77.30
11540;DHT22;5826;54.756;9.192;2023-10-19T15:55:20;10.70;77.50
11540;DHT22;5826;54.756;9.192;2023-10-19T15:57:49;10.70;77.20